Time;durP1;ratioP1;P1;durP2;ratioP2;P2;SDS_P1;SDS_P2;PMS_P1;PMS_P2;Temp;Humidity;BMP_temperature;BMP_pressure;BME280_temperature;BME280_humidity;BME280_pressure;Samples;Min_cycle;Max_cycle;Signal;HPM_P1;HPM_P2
2021/10/10 00:01:33;;;;;;;20.20;13.00;;;8.60;96.40;;;;;;4992988;28;20575;-51
2021/10/10 00:03:59;;;;;;;18.50;13.83;;;8.80;96.50;;;;;;4993811;28;20494;-51
2021/10/10 00:06:26;;;;;;;16.40;12.47;;;8.80;96.40;;;;;;4992460;28;20899;-51
2021/10/10 00:08:54;;;;;;;19.30;13.07;;;8.90;96.50;;;;;;4993337;28;20511;-52
2021/10/10 00:11:24;;;;;;;15.23;12.97;;;8.70;96.30;;;;;;4993854;28;20960;-51
2021/10/10 00:13:51;;;;;;;23.43;13.60;;;8.80;96.30;;;;;;4992387;28;20449;-50
2021/10/10 00:16:18;;;;;;;21.43;13.53;;;8.90;96.40;;;;;;4993749;28;20441;-50
2021/10/10 00:18:44;;;;;;;16.77;12.27;;;8.30;96.10;;;;;;4993390;28;20677;-50
2021/10/10 00:21:11;;;;;;;16.20;11.90;;;8.60;96.20;;;;;;4993386;28;20995;-49
2021/10/10 00:23:38;;;;;;;17.67;12.57;;;9.00;96.40;;;;;;4992219;28;20452;-50
2021/10/10 00:26:07;;;;;;;20.00;13.30;;;8.90;96.40;;;;;;4991810;28;20551;-52
2021/10/10 00:28:33;;;;;;;19.27;12.57;;;8.90;96.40;;;;;;4993024;28;20529;-51
2021/10/10 00:31:00;;;;;;;19.53;14.27;;;8.80;96.40;;;;;;4993237;28;20495;-51
2021/10/10 00:33:28;;;;;;;16.00;13.10;;;8.80;96.30;;;;;;4993022;28;20422;-52
2021/10/10 00:35:57;;;;;;;14.93;12.60;;;8.70;96.30;;;;;;4975878;28;20521;-50
2021/10/10 00:38:25;;;;;;;20.90;13.97;;;8.70;96.30;;;;;;4991446;28;20463;-51
2021/10/10 00:41:00;;;;;;;17.43;13.27;;;8.80;96.40;;;;;;4992479;28;20893;-51
2021/10/10 00:43:37;;;;;;;21.93;16.50;;;8.90;96.50;;;;;;4991396;28;20576;-50
2021/10/10 00:46:04;;;;;;;20.03;13.93;;;8.60;96.50;;;;;;4992910;28;20481;-52
2021/10/10 00:48:30;;;;;;;20.47;12.47;;;8.90;96.70;;;;;;4991282;28;20431;-50
2021/10/10 00:50:57;;;;;;;19.57;14.03;;;8.50;96.60;;;;;;4993470;28;20819;-50
2021/10/10 00:53:26;;;;;;;17.63;13.13;;;8.50;96.60;;;;;;4992655;28;20418;-51
2021/10/10 00:55:55;;;;;;;18.60;15.20;;;8.50;96.70;;;;;;4993031;28;20921;-50
2021/10/10 00:58:22;;;;;;;20.80;14.50;;;8.60;96.90;;;;;;4974773;28;20797;-52
2021/10/10 01:00:53;;;;;;;18.17;13.30;;;8.50;96.90;;;;;;4992612;28;21007;-50
2021/10/10 01:03:20;;;;;;;17.80;13.77;;;8.50;97.00;;;;;;4992507;28;20518;-52
2021/10/10 01:05:47;;;;;;;18.63;13.90;;;8.50;97.00;;;;;;4992936;28;20429;-51
2021/10/10 01:08:14;;;;;;;19.90;15.00;;;8.70;97.20;;;;;;4992357;28;20433;-52
2021/10/10 01:10:45;;;;;;;20.50;14.93;;;8.60;97.20;;;;;;4992605;28;20971;-51
2021/10/10 01:13:14;;;;;;;17.63;13.67;;;8.40;97.10;;;;;;4991801;28;21013;-51
2021/10/10 01:15:41;;;;;;;21.80;13.10;;;8.40;97.20;;;;;;4992328;28;20809;-51
2021/10/10 01:18:09;;;;;;;18.90;13.43;;;8.60;97.30;;;;;;4992097;28;20447;-50
2021/10/10 01:20:45;;;;;;;19.70;14.03;;;8.40;97.20;;;;;;4992435;28;20758;-51
2021/10/10 01:23:15;;;;;;;18.20;14.57;;;8.60;97.40;;;;;;4991308;28;20507;-51
2021/10/10 01:25:42;;;;;;;20.37;14.57;;;8.40;97.30;;;;;;4992599;28;20440;-50
2021/10/10 01:28:09;;;;;;;23.10;15.33;;;8.20;97.30;;;;;;4991173;28;20425;-52
2021/10/10 01:30:36;;;;;;;19.83;15.40;;;7.90;97.20;;;;;;4992349;28;20432;-51
2021/10/10 01:33:07;;;;;;;18.47;14.33;;;8.50;97.70;;;;;;4992640;28;20530;-52
2021/10/10 01:35:34;;;;;;;15.67;13.67;;;8.40;97.70;;;;;;4992648;28;20928;-50
2021/10/10 01:38:03;;;;;;;18.83;14.70;;;8.20;97.70;;;;;;4992121;28;20441;-51
2021/10/10 01:40:33;;;;;;;20.13;14.17;;;8.00;97.70;;;;;;4992617;28;20422;-51
2021/10/10 01:43:02;;;;;;;16.60;14.50;;;8.00;97.70;;;;;;4992410;28;21007;-51
2021/10/10 01:45:29;;;;;;;21.20;15.37;;;7.90;97.80;;;;;;4992370;28;20443;-51
2021/10/10 01:47:55;;;;;;;21.40;15.80;;;7.80;97.70;;;;;;4991802;28;21032;-51
2021/10/10 01:50:22;;;;;;;23.50;15.87;;;8.10;97.90;;;;;;4990833;28;20480;-50
2021/10/10 01:52:50;;;;;;;19.83;15.40;;;8.10;98.00;;;;;;4992503;28;20519;-51
2021/10/10 01:55:20;;;;;;;18.60;14.60;;;8.30;98.30;;;;;;4992280;28;20944;-50
2021/10/10 01:57:48;;;;;;;22.83;15.30;;;8.50;98.40;;;;;;4991045;28;20490;-51
2021/10/10 02:00:16;;;;;;;19.83;15.60;;;7.60;98.00;;;;;;4992241;28;20447;-52
2021/10/10 02:02:43;;;;;;;23.93;16.53;;;7.90;98.20;;;;;;4991752;28;20984;-51
2021/10/10 02:05:11;;;;;;;27.13;15.93;;;7.80;98.20;;;;;;4992012;28;20412;-50
2021/10/10 02:07:38;;;;;;;20.37;16.03;;;8.20;98.50;;;;;;4992033;28;20418;-52
2021/10/10 02:10:06;;;;;;;22.13;16.33;;;7.70;98.30;;;;;;4991944;28;20467;-50
2021/10/10 02:12:34;;;;;;;19.90;15.53;;;7.90;98.40;;;;;;4991811;28;20522;-50
2021/10/10 02:15:01;;;;;;;25.73;16.30;;;8.00;98.70;;;;;;4992027;28;20435;-50
2021/10/10 02:17:28;;;;;;;19.77;15.30;;;7.70;98.50;;;;;;4992035;28;20535;-52
2021/10/10 02:19:54;;;;;;;27.93;16.53;;;7.50;98.50;;;;;;4991658;28;20529;-50
2021/10/10 02:22:21;;;;;;;20.40;15.80;;;7.80;98.80;;;;;;4991805;28;20487;-51
2021/10/10 02:24:50;;;;;;;21.10;16.23;;;7.50;98.80;;;;;;4994057;28;20406;-51
2021/10/10 02:27:17;;;;;;;20.53;14.47;;;7.90;99.00;;;;;;4995731;28;20932;-50
2021/10/10 02:29:45;;;;;;;24.07;16.60;;;7.80;99.00;;;;;;4995160;28;20526;-51
2021/10/10 02:32:12;;;;;;;20.17;16.17;;;7.70;99.10;;;;;;4995108;28;20542;-51
2021/10/10 02:34:39;;;;;;;19.23;15.60;;;7.70;99.10;;;;;;4994037;28;20941;-51
2021/10/10 02:37:05;;;;;;;23.87;17.33;;;7.90;99.40;;;;;;4995603;28;20418;-50
2021/10/10 02:39:32;;;;;;;21.47;16.30;;;7.60;99.30;;;;;;4995117;28;20489;-50
2021/10/10 02:41:59;;;;;;;21.57;16.97;;;7.70;99.40;;;;;;5061788;22;20592;-52
2021/10/10 02:44:26;;;;;;;20.50;15.60;;;7.60;99.50;;;;;;5074859;28;20509;-54
2021/10/10 02:46:55;;;;;;;19.90;15.70;;;7.20;99.30;;;;;;5075000;28;20404;-52
2021/10/10 02:49:21;;;;;;;23.00;16.43;;;7.40;99.30;;;;;;5074327;28;20445;-52
2021/10/10 02:51:48;;;;;;;21.10;16.60;;;7.70;99.50;;;;;;5056690;28;20557;-51
2021/10/10 02:54:17;;;;;;;23.67;16.17;;;7.60;99.50;;;;;;5074879;28;20473;-53
2021/10/10 02:56:46;;;;;;;20.90;17.67;;;7.70;99.60;;;;;;5057537;28;20415;-53
2021/10/10 02:59:13;;;;;;;22.50;15.97;;;7.00;99.40;;;;;;5074256;28;20876;-51
2021/10/10 03:01:39;;;;;;;21.90;16.80;;;7.40;99.60;;;;;;5056278;28;20486;-54
2021/10/10 03:04:07;;;;;;;22.70;17.33;;;7.30;99.60;;;;;;5074411;28;20455;-53
2021/10/10 03:06:34;;;;;;;25.70;17.03;;;7.70;99.90;;;;;;5056433;28;20482;-53
2021/10/10 03:09:03;;;;;;;22.03;16.67;;;7.50;99.90;;;;;;5072779;28;20960;-52
2021/10/10 03:11:30;;;;;;;22.33;16.50;;;7.40;99.90;;;;;;5074425;28;20429;-53
2021/10/10 03:13:57;;;;;;;19.53;15.57;;;7.20;99.90;;;;;;5074517;28;20842;-51
2021/10/10 03:16:23;;;;;;;25.60;16.60;;;7.00;99.90;;;;;;5074473;28;20552;-52
2021/10/10 03:18:50;;;;;;;22.27;17.00;;;7.40;99.90;;;;;;5073831;28;20906;-51
2021/10/10 03:21:18;;;;;;;25.60;16.53;;;7.40;99.90;;;;;;5074289;28;20847;-53
2021/10/10 03:23:45;;;;;;;21.90;17.00;;;7.30;99.90;;;;;;5056199;28;20843;-52
2021/10/10 03:26:12;;;;;;;28.73;18.37;;;7.30;99.90;;;;;;5074050;28;20449;-50
2021/10/10 03:28:39;;;;;;;21.73;17.83;;;7.40;99.90;;;;;;5073569;28;20438;-52
2021/10/10 03:31:08;;;;;;;24.87;17.87;;;7.10;99.90;;;;;;5073796;28;20456;-51
2021/10/10 03:33:34;;;;;;;25.43;17.57;;;6.90;99.90;;;;;;5073815;28;20497;-52
2021/10/10 03:36:01;;;;;;;23.27;18.23;;;7.30;99.90;;;;;;5073202;28;20514;-52
2021/10/10 03:38:29;;;;;;;26.13;18.80;;;6.80;99.90;;;;;;5055567;28;20470;-52
2021/10/10 03:40:56;;;;;;;27.27;18.23;;;7.10;99.90;;;;;;5073597;28;20474;-51
2021/10/10 03:43:23;;;;;;;19.00;16.40;;;7.30;99.90;;;;;;5073913;28;20473;-51
2021/10/10 03:45:49;;;;;;;21.80;18.23;;;6.90;99.90;;;;;;5074069;28;20431;-51
2021/10/10 03:48:16;;;;;;;22.90;17.50;;;7.00;99.90;;;;;;5073334;28;20480;-52
2021/10/10 03:50:43;;;;;;;25.80;17.50;;;7.00;99.90;;;;;;5055720;28;20534;-51
2021/10/10 03:53:12;;;;;;;25.43;18.43;;;7.10;99.90;;;;;;5073803;28;20423;-51
2021/10/10 03:55:39;;;;;;;22.47;17.40;;;7.10;99.90;;;;;;5073789;28;20467;-53
2021/10/10 03:58:09;;;;;;;23.20;17.93;;;7.20;99.90;;;;;;5073170;28;20435;-51
2021/10/10 04:00:37;;;;;;;24.60;17.70;;;7.10;99.90;;;;;;5073467;28;20398;-53
2021/10/10 04:03:06;;;;;;;26.00;18.80;;;6.90;99.90;;;;;;5073239;28;20457;-51
2021/10/10 04:05:40;;;;;;;28.90;18.20;;;6.60;99.90;;;;;;5073354;28;20405;-52
2021/10/10 04:08:07;;;;;;;24.77;18.80;;;7.00;99.90;;;;;;5073152;28;20439;-52
2021/10/10 04:10:33;;;;;;;24.30;18.30;;;6.40;99.90;;;;;;5073994;28;20454;-53
2021/10/10 04:13:02;;;;;;;26.07;19.17;;;6.90;99.90;;;;;;5073392;28;20526;-52
2021/10/10 04:15:29;;;;;;;24.60;18.60;;;7.10;99.90;;;;;;5073457;28;20793;-52
2021/10/10 04:17:56;;;;;;;25.97;18.73;;;6.60;99.90;;;;;;5054483;28;20912;-51
2021/10/10 04:20:22;;;;;;;25.00;18.90;;;6.80;99.90;;;;;;5073022;28;20496;-51
2021/10/10 04:22:49;;;;;;;31.47;19.33;;;6.80;99.90;;;;;;5073028;28;20543;-51
2021/10/10 04:25:16;;;;;;;27.60;19.30;;;6.90;99.90;;;;;;5072999;28;20430;-53
2021/10/10 04:27:43;;;;;;;29.77;20.37;;;6.40;99.90;;;;;;5054606;28;20412;-51
2021/10/10 04:30:13;;;;;;;23.67;18.20;;;6.90;99.90;;;;;;5072523;28;20473;-53
2021/10/10 04:32:40;;;;;;;21.97;16.80;;;7.00;99.90;;;;;;5072849;28;20561;-51
2021/10/10 04:35:08;;;;;;;28.33;18.90;;;6.90;99.90;;;;;;5073025;28;20513;-51
2021/10/10 04:37:34;;;;;;;27.20;19.60;;;7.00;99.90;;;;;;5072863;28;20478;-52
2021/10/10 04:40:02;;;;;;;27.50;18.30;;;7.10;99.90;;;;;;5054690;28;20513;-52
2021/10/10 04:42:28;;;;;;;22.97;17.30;;;7.00;99.90;;;;;;5054696;28;20564;-51
2021/10/10 04:44:55;;;;;;;25.57;18.57;;;6.60;99.90;;;;;;5054659;28;20486;-52
2021/10/10 04:47:23;;;;;;;26.30;18.73;;;6.80;99.90;;;;;;5072470;28;20456;-51
2021/10/10 04:49:52;;;;;;;24.30;19.10;;;7.00;99.90;;;;;;5072039;28;20452;-54
2021/10/10 04:52:19;;;;;;;26.90;19.30;;;6.40;99.90;;;;;;5072526;28;20535;-51
2021/10/10 04:54:49;;;;;;;25.23;19.23;;;7.20;99.90;;;;;;5072299;28;20496;-52
2021/10/10 04:57:18;;;;;;;25.10;17.57;;;6.90;99.90;;;;;;5072536;28;20494;-52
2021/10/10 04:59:50;;;;;;;26.90;18.17;;;7.00;99.90;;;;;;5072145;28;20525;-51
2021/10/10 05:02:18;;;;;;;24.93;18.20;;;6.80;99.90;;;;;;5072453;28;20460;-53
2021/10/10 05:04:49;;;;;;;27.57;19.10;;;6.50;99.90;;;;;;5072156;28;20517;-52
2021/10/10 05:07:16;;;;;;;23.20;17.90;;;6.90;99.90;;;;;;5072486;28;20426;-52
2021/10/10 05:09:45;;;;;;;26.87;19.00;;;7.00;99.90;;;;;;5053851;28;20421;-50
2021/10/10 05:12:13;;;;;;;29.70;19.93;;;6.70;99.90;;;;;;5072194;28;20420;-54
2021/10/10 05:14:40;;;;;;;28.33;20.47;;;6.70;99.90;;;;;;5071965;28;20548;-52
2021/10/10 05:17:06;;;;;;;28.63;19.77;;;6.70;99.90;;;;;;5054115;28;20474;-52
2021/10/10 05:19:33;;;;;;;27.53;19.30;;;6.80;99.90;;;;;;5071775;28;20413;-52
2021/10/10 05:22:02;;;;;;;31.77;21.40;;;6.60;99.90;;;;;;5072555;28;20468;-52
2021/10/10 05:24:29;;;;;;;23.13;19.53;;;6.80;99.90;;;;;;5072736;28;20221;-55
2021/10/10 05:26:55;;;;;;;28.60;20.80;;;6.50;99.90;;;;;;5072020;28;20922;-51
2021/10/10 05:29:22;;;;;;;28.90;21.55;;;6.60;99.90;;;;;;5053701;28;20433;-54
2021/10/10 05:31:49;;;;;;;24.60;19.03;;;6.70;99.90;;;;;;5071739;28;20302;-51
2021/10/10 05:34:15;;;;;;;28.23;19.90;;;6.90;99.90;;;;;;5071746;28;20435;-51
2021/10/10 05:36:44;;;;;;;27.83;20.07;;;6.60;99.90;;;;;;5071692;28;20484;-52
2021/10/10 05:39:12;;;;;;;27.10;19.43;;;6.50;99.90;;;;;;5071550;28;21022;-52
2021/10/10 05:41:39;;;;;;;26.80;19.70;;;6.60;99.90;;;;;;5071532;28;20546;-52
2021/10/10 05:44:06;;;;;;;28.63;20.20;;;6.70;99.90;;;;;;5071449;28;20474;-52
2021/10/10 05:46:33;;;;;;;29.10;20.30;;;6.60;99.90;;;;;;5071447;28;20499;-51
2021/10/10 05:48:59;;;;;;;32.70;20.73;;;6.60;99.90;;;;;;5071258;28;20758;-52
2021/10/10 05:51:26;;;;;;;27.80;20.93;;;6.70;99.90;;;;;;5071454;28;20449;-53
2021/10/10 05:53:53;;;;;;;26.08;19.60;;;6.40;99.90;;;;;;5071365;28;20910;-52
2021/10/10 05:56:21;;;;;;;29.63;19.10;;;6.60;99.90;;;;;;5071612;28;20658;-52
2021/10/10 05:58:54;;;;;;;25.17;20.10;;;6.90;99.90;;;;;;5072265;28;20517;-52
2021/10/10 06:01:21;;;;;;;29.00;20.47;;;6.80;99.90;;;;;;5057803;28;20502;-52
2021/10/10 06:03:48;;;;;;;29.07;20.97;;;6.70;99.90;;;;;;5075592;28;20495;-52
2021/10/10 06:06:15;;;;;;;27.10;19.77;;;6.80;99.90;;;;;;5075529;28;20841;-52
2021/10/10 06:08:41;;;;;;;30.20;20.40;;;6.90;99.90;;;;;;5075175;28;20512;-52
2021/10/10 06:11:10;;;;;;;26.00;18.33;;;6.40;99.90;;;;;;5075371;28;20512;-51
2021/10/10 06:13:38;;;;;;;25.90;18.90;;;7.20;99.90;;;;;;5075320;28;20429;-52
2021/10/10 06:16:05;;;;;;;29.67;19.77;;;6.50;99.90;;;;;;5075163;28;20793;-52
2021/10/10 06:18:33;;;;;;;26.60;19.80;;;7.10;99.90;;;;;;5075113;28;20512;-51
2021/10/10 06:20:59;;;;;;;24.70;19.10;;;7.00;99.90;;;;;;5075222;28;20490;-52
2021/10/10 06:23:26;;;;;;;28.80;20.40;;;7.30;99.90;;;;;;5057195;28;20577;-52
2021/10/10 06:25:53;;;;;;;24.87;19.37;;;7.20;99.90;;;;;;5057265;28;20853;-52
2021/10/10 06:28:19;;;;;;;30.23;20.63;;;7.10;99.90;;;;;;5074536;28;20526;-51
2021/10/10 06:30:47;;;;;;;26.43;19.27;;;6.80;99.90;;;;;;5056803;28;20515;-52
2021/10/10 06:33:14;;;;;;;25.17;20.63;;;7.30;99.90;;;;;;5075091;28;20900;-52
2021/10/10 06:35:43;;;;;;;27.63;20.17;;;7.50;99.90;;;;;;5076923;28;20427;-52
2021/10/10 06:38:12;;;;;;;28.70;20.60;;;7.30;99.90;;;;;;5075286;28;20774;-52
2021/10/10 06:40:39;;;;;;;32.27;21.80;;;7.50;99.90;;;;;;5074824;28;20528;-52
2021/10/10 06:43:06;;;;;;;28.67;21.77;;;7.40;99.90;;;;;;5074710;28;20472;-52
2021/10/10 06:45:33;;;;;;;29.47;20.27;;;7.30;99.90;;;;;;5074759;28;20457;-51
2021/10/10 06:48:01;;;;;;;29.57;21.43;;;7.50;99.90;;;;;;5074409;28;20493;-51
2021/10/10 06:50:28;;;;;;;27.50;21.97;;;7.40;99.90;;;;;;5056793;28;20888;-52
2021/10/10 06:52:54;;;;;;;30.10;22.73;;;7.60;99.90;;;;;;5072894;28;20441;-51
2021/10/10 06:55:21;;;;;;;26.37;21.00;;;7.30;99.90;;;;;;5074732;28;20433;-53
2021/10/10 06:57:50;;;;;;;31.13;21.83;;;7.70;99.90;;;;;;5074612;28;20881;-51
2021/10/10 07:00:17;;;;;;;32.03;21.80;;;7.50;99.90;;;;;;5074690;28;20504;-52
2021/10/10 07:02:46;;;;;;;30.40;20.63;;;7.60;99.90;;;;;;5074317;28;20507;-51
2021/10/10 07:05:17;;;;;;;26.23;20.00;;;7.60;99.90;;;;;;5074210;28;20514;-51
2021/10/10 07:07:44;;;;;;;31.30;21.53;;;7.40;99.90;;;;;;5074088;28;20836;-51
2021/10/10 07:10:14;;;;;;;27.60;21.33;;;7.50;99.90;;;;;;5054907;28;20492;-51
2021/10/10 07:12:40;;;;;;;26.60;20.60;;;7.40;99.90;;;;;;5072820;28;20510;-50
2021/10/10 07:15:13;;;;;;;31.60;21.57;;;7.50;99.90;;;;;;5074102;28;20413;-52
2021/10/10 07:17:40;;;;;;;30.33;21.33;;;7.40;99.90;;;;;;5073858;28;20423;-50
2021/10/10 07:20:11;;;;;;;29.23;21.87;;;7.20;99.90;;;;;;5074139;28;20407;-51
2021/10/10 07:22:46;;;;;;;27.90;21.07;;;7.90;99.90;;;;;;5073848;28;20429;-52
2021/10/10 07:25:13;;;;;;;29.53;21.67;;;7.70;99.90;;;;;;5073972;28;20459;-51
2021/10/10 07:27:42;;;;;;;32.40;20.80;;;7.60;99.90;;;;;;5073504;28;20439;-51
2021/10/10 07:30:10;;;;;;;26.10;21.83;;;7.70;99.90;;;;;;5073701;28;20809;-52
2021/10/10 07:32:38;;;;;;;29.50;20.70;;;7.60;99.90;;;;;;5073729;28;20493;-51
2021/10/10 07:35:06;;;;;;;27.87;21.60;;;7.80;99.90;;;;;;5073912;28;20437;-52
2021/10/10 07:37:33;;;;;;;30.63;22.50;;;8.10;99.90;;;;;;5074104;28;21168;-51
2021/10/10 07:40:02;;;;;;;29.30;21.03;;;7.80;99.90;;;;;;5073536;28;20415;-52
2021/10/10 07:42:29;;;;;;;26.90;20.47;;;7.90;99.90;;;;;;5055195;28;20484;-51
2021/10/10 07:45:04;;;;;;;34.03;21.63;;;8.00;99.90;;;;;;5073591;28;20478;-52
2021/10/10 07:47:48;;;;;;;27.60;20.17;;;8.00;99.90;;;;;;5073652;28;20915;-52
2021/10/10 07:50:15;;;;;;;29.47;21.70;;;8.00;99.90;;;;;;5073616;28;20413;-52
2021/10/10 07:52:42;;;;;;;27.90;21.07;;;7.80;99.90;;;;;;5075081;28;20457;-52
2021/10/10 07:55:10;;;;;;;30.47;20.87;;;7.90;99.90;;;;;;5074429;28;20469;-52
2021/10/10 07:57:37;;;;;;;29.17;21.40;;;8.30;99.90;;;;;;5071915;28;20575;-52
2021/10/10 08:00:05;;;;;;;26.50;20.73;;;8.20;99.90;;;;;;5073137;28;20941;-52
2021/10/10 08:02:48;;;;;;;25.73;20.73;;;8.00;99.90;;;;;;5073435;28;20466;-53
2021/10/10 08:05:15;;;;;;;22.83;19.07;;;8.20;99.80;;;;;;5071773;28;20474;-52
2021/10/10 08:07:42;;;;;;;27.30;20.30;;;7.90;99.50;;;;;;5072825;28;20531;-51
2021/10/10 08:10:12;;;;;;;24.93;20.43;;;7.90;99.40;;;;;;5073211;28;20780;-53
2021/10/10 08:12:39;;;;;;;27.53;19.67;;;8.40;99.60;;;;;;5072939;28;20535;-51
2021/10/10 08:15:07;;;;;;;22.00;18.13;;;8.20;99.40;;;;;;5072827;28;21162;-52
2021/10/10 08:17:33;;;;;;;27.27;20.43;;;8.30;99.30;;;;;;5055102;28;20440;-51
2021/10/10 08:20:00;;;;;;;28.60;18.27;;;8.40;99.10;;;;;;5054730;28;20452;-52
2021/10/10 08:22:27;;;;;;;29.30;19.53;;;8.50;99.20;;;;;;5072348;28;20525;-52
2021/10/10 08:24:54;;;;;;;27.13;19.30;;;8.40;99.00;;;;;;5073149;28;20500;-52
2021/10/10 08:27:22;;;;;;;23.63;18.40;;;8.50;98.80;;;;;;5073116;28;20410;-51
2021/10/10 08:29:49;;;;;;;25.33;19.13;;;8.50;98.70;;;;;;5072183;28;20931;-51
2021/10/10 08:32:18;;;;;;;28.50;19.43;;;8.60;99.10;;;;;;5072251;28;20472;-52
2021/10/10 08:34:45;;;;;;;25.20;18.50;;;8.80;98.80;;;;;;5072659;28;20411;-51
2021/10/10 08:37:14;;;;;;;21.90;17.60;;;8.70;98.70;;;;;;5072669;28;20405;-49
2021/10/10 08:39:41;;;;;;;21.67;17.30;;;8.60;98.40;;;;;;5072745;28;20527;-51
2021/10/10 08:42:12;;;;;;;24.57;17.57;;;8.70;98.30;;;;;;5077869;22;20609;-50
2021/10/10 08:44:44;;;;;;;25.10;15.87;;;8.90;98.30;;;;;;5034365;28;20481;-51
2021/10/10 08:47:15;;;;;;;25.13;16.47;;;8.90;98.20;;;;;;5052017;28;20952;-51
2021/10/10 08:49:44;;;;;;;23.23;16.87;;;9.00;98.00;;;;;;5051960;28;20740;-51
2021/10/10 08:52:14;;;;;;;22.87;17.10;;;9.30;97.90;;;;;;5051685;28;20549;-51
2021/10/10 08:54:42;;;;;;;25.23;17.47;;;9.00;97.70;;;;;;5051485;28;20533;-51
2021/10/10 08:57:09;;;;;;;22.63;15.70;;;9.10;97.50;;;;;;5051885;28;20812;-51
2021/10/10 08:59:43;;;;;;;19.10;15.83;;;9.10;97.20;;;;;;5051129;28;20436;-51
2021/10/10 09:02:18;;;;;;;21.33;17.20;;;9.30;97.20;;;;;;5051813;28;20443;-51
2021/10/10 09:04:45;;;;;;;22.77;15.10;;;9.20;96.80;;;;;;5051686;28;20462;-51
2021/10/10 09:07:11;;;;;;;20.87;15.60;;;8.90;96.40;;;;;;5051623;28;20952;-51
2021/10/10 09:09:39;;;;;;;19.23;15.40;;;9.50;96.50;;;;;;5032734;28;20456;-51
2021/10/10 09:12:07;;;;;;;21.57;15.33;;;9.80;96.40;;;;;;5051343;28;20949;-51
2021/10/10 09:14:45;;;;;;;19.90;15.33;;;9.70;96.30;;;;;;5033486;28;20445;-51
2021/10/10 09:17:14;;;;;;;23.30;15.10;;;9.10;95.80;;;;;;5051521;28;20494;-51
2021/10/10 09:19:47;;;;;;;19.07;14.70;;;10.00;95.50;;;;;;5050744;28;20435;-50
2021/10/10 09:22:14;;;;;;;16.63;14.33;;;9.90;96.00;;;;;;5050888;28;20478;-50
2021/10/10 09:24:41;;;;;;;24.43;13.90;;;9.70;95.40;;;;;;5050917;28;20531;-51
2021/10/10 09:27:12;;;;;;;20.03;13.00;;;10.30;95.10;;;;;;5051382;28;20496;-51
2021/10/10 09:29:41;;;;;;;25.87;15.17;;;10.00;94.70;;;;;;5050560;28;20442;-54
2021/10/10 09:32:12;;;;;;;17.37;13.30;;;9.70;95.00;;;;;;5050989;28;20454;-53
2021/10/10 09:34:43;;;;;;;20.53;13.70;;;9.80;95.00;;;;;;5031958;28;20474;-50
2021/10/10 09:37:16;;;;;;;16.07;13.47;;;10.10;94.40;;;;;;5033287;28;20446;-53
2021/10/10 09:39:45;;;;;;;19.97;14.27;;;9.70;94.80;;;;;;5032574;28;20450;-52
2021/10/10 09:42:32;;;;;;;17.23;13.80;;;10.20;94.10;;;;;;5050383;28;20910;-51
2021/10/10 09:45:16;;;;;;;18.73;13.00;;;10.20;93.40;;;;;;5050702;28;20816;-51
2021/10/10 09:47:55;;;;;;;18.47;11.80;;;10.40;93.20;;;;;;5050800;28;20432;-51
2021/10/10 09:50:22;;;;;;;16.27;11.97;;;10.10;92.60;;;;;;5051071;28;20533;-52
2021/10/10 09:53:01;;;;;;;17.93;12.63;;;10.40;92.30;;;;;;5050612;28;20516;-53
2021/10/10 09:55:29;;;;;;;19.27;13.10;;;10.60;92.20;;;;;;5032329;28;20938;-53
2021/10/10 09:57:56;;;;;;;19.93;10.80;;;10.60;92.10;;;;;;5032372;28;20442;-52
2021/10/10 10:00:24;;;;;;;15.20;10.57;;;10.70;91.90;;;;;;5050167;28;20481;-52
2021/10/10 10:03:00;;;;;;;15.07;10.27;;;10.40;91.30;;;;;;5050296;28;21042;-52
2021/10/10 10:05:28;;;;;;;11.43;9.83;;;11.20;91.60;;;;;;5050272;28;20527;-52
2021/10/10 10:07:58;;;;;;;13.67;10.40;;;10.90;91.30;;;;;;5049868;28;20401;-52
2021/10/10 10:10:29;;;;;;;16.33;10.70;;;11.10;91.20;;;;;;5050197;28;20777;-54
2021/10/10 10:12:58;;;;;;;14.63;11.00;;;11.10;91.10;;;;;;5050313;28;20450;-52
2021/10/10 10:15:27;;;;;;;14.27;11.03;;;10.50;90.80;;;;;;5032071;28;20542;-52
2021/10/10 10:17:56;;;;;;;13.43;10.60;;;11.10;90.30;;;;;;5031992;28;21008;-52
2021/10/10 10:20:24;;;;;;;13.83;10.43;;;11.30;90.70;;;;;;5031864;28;20451;-55
2021/10/10 10:22:53;;;;;;;14.30;9.93;;;11.20;90.30;;;;;;5032506;28;20443;-51
2021/10/10 10:25:20;;;;;;;14.77;11.10;;;11.50;90.40;;;;;;5050296;28;20470;-52
2021/10/10 10:27:49;;;;;;;13.37;9.00;;;11.20;90.10;;;;;;5050213;28;20423;-52
2021/10/10 10:30:17;;;;;;;11.57;9.27;;;11.40;90.20;;;;;;5050420;28;20435;-52
2021/10/10 10:32:44;;;;;;;15.70;9.90;;;11.40;89.00;;;;;;5050493;28;20640;-52
2021/10/10 10:35:15;;;;;;;11.80;9.37;;;11.40;89.20;;;;;;5049830;28;20526;-52
2021/10/10 10:37:49;;;;;;;14.40;9.30;;;11.40;87.90;;;;;;5030796;28;20435;-53
2021/10/10 10:40:33;;;;;;;13.33;9.77;;;11.80;87.00;;;;;;5031649;28;20446;-52
2021/10/10 10:43:03;;;;;;;11.83;9.00;;;11.50;86.60;;;;;;5032136;28;20482;-53
2021/10/10 10:45:32;;;;;;;16.80;9.23;;;11.40;84.90;;;;;;5052611;28;20478;-52
2021/10/10 10:48:01;;;;;;;11.13;8.40;;;12.10;85.60;;;;;;5053527;28;20759;-53
2021/10/10 10:50:32;;;;;;;15.30;9.00;;;11.90;84.50;;;;;;5053664;28;20484;-51
2021/10/10 10:53:01;;;;;;;14.13;9.20;;;11.80;84.80;;;;;;5053421;28;20436;-53
2021/10/10 10:55:31;;;;;;;14.67;8.40;;;11.60;84.80;;;;;;5053879;28;20438;-53
2021/10/10 10:57:59;;;;;;;15.67;9.67;;;12.20;84.10;;;;;;5034093;28;21085;-53
2021/10/10 11:00:32;;;;;;;14.50;9.93;;;12.30;83.90;;;;;;5035404;28;20891;-52
2021/10/10 11:03:07;;;;;;;11.43;8.73;;;11.80;84.00;;;;;;5052910;28;20442;-53
2021/10/10 11:05:39;;;;;;;13.00;9.30;;;11.90;84.80;;;;;;5053564;28;20584;-53
2021/10/10 11:08:07;;;;;;;11.23;8.77;;;12.10;84.50;;;;;;5035472;28;20468;-54
2021/10/10 11:10:35;;;;;;;11.63;9.13;;;11.90;83.60;;;;;;5053587;28;20506;-52
2021/10/10 11:13:24;;;;;;;15.83;9.47;;;12.20;83.20;;;;;;5035501;28;20875;-52
2021/10/10 11:15:53;;;;;;;13.93;8.87;;;12.10;82.50;;;;;;5053192;28;20924;-53
2021/10/10 11:18:22;;;;;;;12.60;9.90;;;12.10;83.50;;;;;;5034871;28;20512;-53
2021/10/10 11:20:54;;;;;;;16.67;9.70;;;12.00;83.10;;;;;;5035329;28;20518;-53
2021/10/10 11:23:22;;;;;;;12.50;8.70;;;12.40;83.60;;;;;;5053704;28;20466;-53
2021/10/10 11:25:50;;;;;;;12.93;8.20;;;12.40;83.70;;;;;;5053327;28;20843;-53
2021/10/10 11:28:18;;;;;;;9.67;8.53;;;12.50;83.60;;;;;;5052886;28;20405;-53
2021/10/10 11:30:46;;;;;;;12.20;8.80;;;12.40;82.30;;;;;;5053308;28;20482;-53
2021/10/10 11:33:15;;;;;;;12.00;8.67;;;12.10;82.50;;;;;;5052860;28;20512;-52
2021/10/10 11:35:44;;;;;;;14.20;9.07;;;12.20;82.60;;;;;;5053052;28;20958;-53
2021/10/10 11:38:14;;;;;;;17.40;10.00;;;12.20;82.40;;;;;;5052542;28;20956;-53
2021/10/10 11:40:59;;;;;;;14.50;9.33;;;12.30;83.10;;;;;;5053022;28;20940;-53
2021/10/10 11:43:28;;;;;;;9.30;8.07;;;12.60;83.00;;;;;;5051892;28;20798;-54
2021/10/10 11:45:56;;;;;;;9.57;6.47;;;11.90;81.60;;;;;;5053042;28;20450;-53
2021/10/10 11:48:36;;;;;;;9.47;7.60;;;12.60;78.90;;;;;;5052405;28;20812;-53
2021/10/10 11:51:03;;;;;;;11.80;7.63;;;12.40;76.40;;;;;;5053226;28;20494;-53
2021/10/10 11:53:43;;;;;;;9.43;6.93;;;12.50;77.50;;;;;;5034333;28;20926;-53
2021/10/10 11:56:10;;;;;;;12.37;7.17;;;12.40;76.10;;;;;;5052307;28;20434;-52
2021/10/10 11:58:37;;;;;;;10.40;7.20;;;12.70;76.50;;;;;;5034307;28;20460;-52
2021/10/10 12:01:09;;;;;;;8.47;7.17;;;12.80;76.50;;;;;;5052498;28;20466;-53
2021/10/10 12:03:41;;;;;;;7.63;6.67;;;12.80;76.10;;;;;;5052385;28;20863;-52
2021/10/10 12:06:16;;;;;;;10.80;7.63;;;13.00;76.20;;;;;;5052354;28;20481;-53
2021/10/10 12:08:44;;;;;;;12.87;7.03;;;12.50;75.50;;;;;;5051943;28;20437;-51
2021/10/10 12:11:11;;;;;;;9.57;7.30;;;12.90;74.50;;;;;;5052415;28;20414;-52
2021/10/10 12:13:53;;;;;;;10.20;6.73;;;12.40;73.90;;;;;;5034106;28;20424;-53
2021/10/10 12:16:20;;;;;;;10.80;7.70;;;12.90;74.40;;;;;;5052479;28;20416;-52
2021/10/10 12:18:47;;;;;;;12.77;7.57;;;12.70;74.00;;;;;;5034230;28;20847;-53
2021/10/10 12:21:21;;;;;;;12.50;6.67;;;12.80;73.20;;;;;;5034151;28;20571;-52
2021/10/10 12:24:04;;;;;;;9.37;6.60;;;12.80;73.50;;;;;;5052029;28;20424;-52
2021/10/10 12:26:44;;;;;;;12.10;8.50;;;13.00;73.20;;;;;;5052379;28;20485;-53
2021/10/10 12:29:34;;;;;;;9.20;7.10;;;13.00;72.50;;;;;;5051650;28;20431;-53
2021/10/10 12:32:17;;;;;;;12.03;6.83;;;13.00;72.80;;;;;;5045812;28;20467;-53
2021/10/10 12:34:43;;;;;;;13.67;7.73;;;12.70;72.80;;;;;;5051835;28;20456;-52
2021/10/10 12:37:17;;;;;;;9.17;7.40;;;12.70;73.40;;;;;;5051990;28;20981;-53
2021/10/10 12:39:48;;;;;;;9.87;7.40;;;12.70;73.10;;;;;;5033969;28;20458;-53
2021/10/10 12:42:17;;;;;;;8.30;7.40;;;12.40;72.60;;;;;;5051325;28;20531;-53
2021/10/10 12:45:06;;;;;;;10.90;7.67;;;12.80;73.10;;;;;;5033792;28;20466;-53